Wilfred Sykes — WC5932 — position and weather

sailwx.info

Track history (hours):
 
Tides and Currents Weather Stations Pressure Air Temp Water Temp Dewpoint Dewpoint Depression Visibility Wind Speed Wind Dir Waves Ship Positions

Wilfred Sykes

Owner: CENTRAL MARINE LOGISTICS, INC, GRIFFITH, IN. More information available from US FCC via Universal Licensing System and Coast Guard Vessel Documentation Center.

Last reported at 2017-Sep-20 20:00 UTC. Time now 2017-Sep-22 19:02 UTC.
Position N 44°48' W 087°24'.

Length 219 m; draft 8.3 m.

Type: Cargo ship. MMSI: 367909800.

Wind from 150 at 27 knots

Barometer 1014.1 mb
Air temperature 21.9 ° C
Dewpoint 0.6 ° C

Date/timePositionNaut miles runAvg speedWind from/ knotsBaromVisibWave heightAir tempDewpointWater temp
2017-Sep-20 20:00N 44°48' W 087°24'0 0.0 150 / 271014.1 21.9 0.6
2017-Sep-20 19:00N 44°48' W 087°24'0 0.0 150 / 231015.1 20.1 6.1
2017-Sep-20 18:00N 44°48' W 087°24'0 0.0 140 / 201016.2 19.4 6.7
2017-Sep-20 17:00N 44°48' W 087°24'0 0.0 150 / 18999.5 19.3 7.8
2017-Sep-20 16:00N 44°48' W 087°24'0 0.0 150 / 16999.2 18.9 8.3
2017-Sep-20 15:00N 44°48' W 087°24'0 0.0 140 / 15999.1 18.4 7.8
2017-Sep-20 14:00N 44°48' W 087°24'0 0.0 140 / 14999.0 18.2 7.8
2017-Sep-20 13:00N 44°48' W 087°24'0 0.0 140 / 13998.6 17.9 7.2
2017-Sep-20 12:00N 44°48' W 087°24'0 0.0 150 / 12998.8 18.1 7.2
2017-Sep-20 11:00N 44°48' W 087°24'0 0.0 150 / 9998.8 18.1 6.7
2017-Sep-20 10:00N 44°48' W 087°24'0 0.0 140 / 8999.5 17.6 6.7
2017-Sep-20 09:00N 44°48' W 087°24'0 0.0 130 / 6999.6 17.4 5.6
2017-Sep-20 08:00N 44°48' W 087°24'0 0.0 130 / 6999.1 17.1 5.0
2017-Sep-20 07:00N 44°48' W 087°24'0 0.0 130 / 6998.8 16.7 4.4
2017-Sep-20 06:00N 44°48' W 087°24'0 0.0 130 / 4998.8 16.4 3.3
2017-Sep-20 05:00N 44°48' W 087°24'0 0.0 110 / 4999.1 16.7 2.8
2017-Sep-20 04:00N 44°48' W 087°24'0 0.0 120 / 4999.1 16.7 2.2
2017-Sep-20 03:00N 44°48' W 087°24'0 0.0 100 / 6999.6 16.9 2.2
2017-Sep-20 02:00N 44°48' W 087°24'0 0.0 100 / 4999.6 16.7-1.1
2017-Sep-20 01:00N 44°48' W 087°24'0 0.0 080 / 51000.2 17.9-3.9
2017-Sep-20 00:00N 44°48' W 087°24'0 0.0 060 / 71000.4 19.6-21.1
2017-Sep-19 23:00N 44°48' W 087°24'0 0.0 090 / 81000.6 21.3-20.0
2017-Sep-19 22:00N 44°48' W 087°24'0 0.0 150 / 71001.1 21.3-20.0
2017-Sep-19 21:00N 44°48' W 087°24'0 0.0 120 / 81001.8 20.4-20.6
2017-Sep-19 20:00N 44°48' W 087°24'0 0.0 110 / 91002.5 20.2-20.6
2017-Sep-19 19:00N 44°48' W 087°24'0 0.0 100 / 91002.7 19.9-15.6
2017-Sep-19 18:00N 44°48' W 087°24'0 0.0 110 / 111003.0 19.3-11.7
2017-Sep-19 17:00N 44°48' W 087°24'0 0.0 130 / 101003.1 18.8-3.9
2017-Sep-19 16:00N 44°48' W 087°24'0 0.0 130 / 101003.0 18.5-1.1
2017-Sep-19 15:00N 44°48' W 087°24'0 0.0 100 / 111002.6 17.6 2.2
2017-Sep-19 14:00N 44°48' W 087°24'4 4.3 100 / 71002.4 17.4 2.2
2017-Sep-19 13:00N 44°48' W 087°18'6 6.0 080 / 151002.3 17.2 3.3
2017-Sep-19 12:00N 44°42' W 087°18'4 4.3 100 / 181001.5 17.7 2.2
2017-Sep-19 11:00N 44°42' W 087°12'0 0.0 080 / 161001.7 17.9 1.7
2017-Sep-19 10:00N 44°42' W 087°12'6 6.0 090 / 121001.7 18.1-0.0
2017-Sep-19 09:00N 44°36' W 087°12'7 7.4 120 / 91002.0 18.0-1.7
2017-Sep-19 08:00N 44°30' W 087°06'6 6.0 110 / 101002.0 18.0-1.7
2017-Sep-19 07:00N 44°24' W 087°06'6 6.0 100 / 161001.7 18.2-2.8
2017-Sep-19 06:00N 44°18' W 087°06'44 4.9 100 / 171001.5 18.1-1.7
2017-Sep-18 21:00N 43°36' W 086°48'0 0.0 360 / 131004.2 19.2-11.1
2017-Sep-18 20:00N 43°36' W 086°48'6 6.0 350 / 131004.5 19.2-12.2
2017-Sep-18 19:00N 43°30' W 086°48'1312.8 1004.4 19.2-21.7
2017-Sep-18 18:00N 43°18' W 086°42'7 7.4 020 / 61006.1 19.0-3.9
2017-Sep-18 17:00N 43°12' W 086°36'1110.6 070 / 61006.0 17.8 1.1
2017-Sep-18 16:00N 43°06' W 086°24'9 8.8 060 / 121005.2 16.6 6.7
2017-Sep-18 15:00N 43°06' W 086°12'0 0.0 070 / 91005.4 14.6 5.6
2017-Sep-18 14:00N 43°06' W 086°12'0 0.0 050 / 101005.4 13.5 2.8
2017-Sep-18 13:00N 43°06' W 086°12'0 0.0 050 / 101005.0 12.7 0.6
2017-Sep-18 12:00N 43°06' W 086°12'0 0.0 020 / 71004.5 13.8 0.6
2017-Sep-18 11:00N 43°06' W 086°12'0 0.0 320 / 61004.4 15.3-0.6
2017-Sep-18 10:00N 43°06' W 086°12'7 7.4 340 / 161004.4 16.8-3.3
2017-Sep-18 09:00N 43°00' W 086°18'1514.9 340 / 161003.8 18.6-3.9
2017-Sep-18 08:00N 42°48' W 086°30'1312.8 340 / 181004.4 18.8-7.8
2017-Sep-18 07:00N 42°36' W 086°36'1312.8 330 / 221004.4 19.2-8.3
2017-Sep-18 06:00N 42°24' W 086°42'1312.8 340 / 221004.7 19.5-3.9
2017-Sep-18 05:00N 42°12' W 086°48'1312.8 340 / 231005.2 19.6-2.2
2017-Sep-18 04:00N 42°00' W 086°54'1312.8 340 / 241005.0 20.5-2.8
2017-Sep-18 03:00N 41°48' W 087°00'7 7.5 360 / 131004.4 21.2 7.2
2017-Sep-18 02:00N 41°42' W 087°06'6 6.0 310 / 101003.7 21.1 7.8
2017-Sep-18 01:00N 41°36' W 087°06'0 0.0 300 / 91003.0 22.2 6.7
2017-Sep-18 00:00N 41°36' W 087°06'0 0.0 160 / 91002.3 23.3 4.4
2017-Sep-17 23:00N 41°36' W 087°06'0 0.0 140 / 101002.8 23.7 4.4
2017-Sep-17 22:00N 41°36' W 087°06'0 0.0 020 / 111002.5 23.9 5.6
2017-Sep-17 21:00N 41°36' W 087°06'0 0.0 240 / 171002.9 23.9-0.0
2017-Sep-17 20:00N 41°36' W 087°06'0 0.0 020 / 91002.8 25.5-7.2
2017-Sep-17 19:00N 41°36' W 087°06'0 0.0 010 / 61002.8 27.1-15.6
2017-Sep-17 18:00N 41°36' W 087°06'0 0.0 290 / 81003.3 23.5-0.6
2017-Sep-17 17:00N 41°36' W 087°06'0 0.0 290 / 91003.2 23.3-1.1
2017-Sep-17 16:00N 41°36' W 087°06'0 0.0 190 / 111003.2 24.4-7.8
2017-Sep-17 15:00N 41°36' W 087°06'0 0.0 180 / 111003.8 23.2-2.2
2017-Sep-17 14:00N 41°36' W 087°06'0 0.0 170 / 101003.2 22.0 0.6
2017-Sep-17 13:00N 41°36' W 087°06'0 0.0 170 / 101003.3 20.3 3.9
2017-Sep-17 12:00N 41°36' W 087°06'0 0.0 170 / 91002.2 20.7 3.3
2017-Sep-17 11:00N 41°36' W 087°06'0 0.0 170 / 111002.4 20.9 3.3
2017-Sep-17 10:00N 41°36' W 087°06'0 0.0 170 / 121002.0 22.0-0.6
2017-Sep-17 09:00N 41°36' W 087°06'0 0.0 150 / 121001.7 22.1-1.1
2017-Sep-17 08:00N 41°36' W 087°06'0 0.0 160 / 111002.3 22.6-1.7
2017-Sep-17 07:00N 41°36' W 087°06'0 0.0 160 / 101002.6 23.7-12.8
2017-Sep-17 06:00N 41°36' W 087°06'0 0.0 150 / 111002.8 24.2-17.8
2017-Sep-17 05:00N 41°36' W 087°06'0 0.0 150 / 91003.2 25.1-17.2
2017-Sep-17 04:00N 41°36' W 087°06'0 0.0 140 / 91003.2 25.0-17.2
2017-Sep-17 03:00N 41°36' W 087°06'0 0.0 150 / 101003.3 25.6-16.7
2017-Sep-17 02:00N 41°36' W 087°06'0 0.0 160 / 81003.4 27.5-15.6
2017-Sep-17 01:00N 41°36' W 087°06'0 0.0 180 / 91003.1 28.1-15.0
2017-Sep-17 00:00N 41°36' W 087°06'0 0.0 190 / 101003.5 28.9-14.4
2017-Sep-16 23:00N 41°36' W 087°06'0 0.0 200 / 121004.0 29.3-14.4
2017-Sep-16 22:00N 41°36' W 087°06'0 0.0 200 / 131004.5 29.7-13.9
2017-Sep-16 21:00N 41°36' W 087°06'0 0.0 190 / 121004.9 29.8-13.9
2017-Sep-16 20:00N 41°36' W 087°06'0 0.0 180 / 131005.0 28.7-14.4
2017-Sep-16 19:00N 41°36' W 087°06'0 0.0 200 / 101005.3 28.2-15.0
2017-Sep-16 18:00N 41°36' W 087°06'6 6.0 160 / 101005.9 27.7-15.6
2017-Sep-16 17:00N 41°42' W 087°06'0 0.0 160 / 71006.4 24.8-13.3
2017-Sep-16 16:00N 41°42' W 087°06'0 0.0 190 / 101006.5 24.8-6.7
2017-Sep-16 15:00N 41°42' W 087°06'0 0.0 180 / 111006.2 23.1-1.1
2017-Sep-16 14:00N 41°42' W 087°06'0 0.0 170 / 121005.6 20.7 2.8
2017-Sep-16 13:00N 41°42' W 087°06'0 0.0 170 / 141004.8 18.9 3.3
2017-Sep-16 12:00N 41°42' W 087°06'0 0.0 160 / 161004.4 18.8 2.8
2017-Sep-16 11:00N 41°42' W 087°06'0 0.0 160 / 181004.0 19.1 2.2
2017-Sep-16 10:00N 41°42' W 087°06'0 0.0 160 / 171003.8 19.7 0.6
2017-Sep-16 09:00N 41°42' W 087°06'0 0.0 160 / 171003.5 20.0-1.1
2017-Sep-16 08:00N 41°42' W 087°06'0 0.0 160 / 171003.8 20.5-2.8
2017-Sep-16 07:00N 41°42' W 087°06'0 0.0 160 / 181003.5 21.2-8.3
2017-Sep-16 06:00N 41°42' W 087°06'0 0.0 150 / 191003.4 21.3-9.4
2017-Sep-16 05:00N 41°42' W 087°06'0 0.0 150 / 191002.8 22.2-19.4
2017-Sep-16 04:00N 41°42' W 087°06'0 0.0 150 / 181002.8 22.7-11.7
2017-Sep-16 03:00N 41°42' W 087°06'1110.8 130 / 161003.0 22.4-4.4
2017-Sep-16 02:00N 41°48' W 087°18'9 8.9 140 / 161002.5 23.1-0.6
2017-Sep-16 01:00N 41°48' W 087°30'7 7.5 150 / 111002.7 28.6-15.0
2017-Sep-16 00:00N 41°42' W 087°24'0 0.0 180 / 131002.4 29.0-14.4
2017-Sep-15 23:00N 41°42' W 087°24'0 0.0 180 / 131002.6 29.5-13.9
2017-Sep-15 22:00N 41°42' W 087°24'4 4.5 170 / 131002.6 30.2-13.3
2017-Sep-15 21:00N 41°42' W 087°30'2412.2 100 / 161002.4 23.0 1.1
2017-Sep-15 19:00N 42°06' W 087°24'8612.2 130 / 181002.9 21.0 7.2
2017-Sep-15 12:00N 43°24' W 086°36'1212.0 130 / 151002.0 19.1 9.4
2017-Sep-15 11:00N 43°36' W 086°36'1212.0 150 / 161001.4 18.8 8.9
2017-Sep-15 10:00N 43°48' W 086°36'1212.0 170 / 151001.1 19.0 7.8
2017-Sep-15 09:00N 44°00' W 086°36'1312.8 160 / 191000.4 18.9 6.7
2017-Sep-15 08:00N 44°12' W 086°30'1312.7 160 / 18999.7 18.6 5.0
2017-Sep-15 07:00N 44°24' W 086°24'1212.0 160 / 18999.7 18.1 3.3
2017-Sep-15 06:00N 44°36' W 086°24'1312.7 160 / 17999.3 18.4 4.4
2017-Sep-15 05:00N 44°48' W 086°18'1212.0 180 / 17999.3 18.3 6.1
2017-Sep-15 04:00N 45°00' W 086°18'1312.7 180 / 19999.0 18.5 7.2
2017-Sep-15 03:00N 45°12' W 086°12'1212.0 180 / 18998.6 18.6 6.7
2017-Sep-15 02:00N 45°24' W 086°12'2512.7 200 / 19998.3 18.2 7.2
2017-Sep-15 00:00N 45°48' W 086°00'7131.0 180 / 17998.5 18.3 6.7
2017-Sep-14 23:56N 45°42' W 086°05'812.0
2017-Sep-14 23:16N 45°48' W 085°59'624.0
2017-Sep-14 23:00N 45°54' W 085°54'3409.7 220 / 16998.7 18.4 5.6
2017-Sep-14 22:59N 45°51' W 085°56'5 9.6
2017-Sep-14 22:27N 45°56' W 085°53'4 9.5
2017-Sep-14 22:00N 46°00' W 085°54'282.3 210 / 16998.6 18.6 4.4
2017-Sep-14 21:58N 45°58' W 085°52'0 0.1
2017-Sep-14 21:10N 45°58' W 085°52'213.2
2017-Sep-14 21:00N 46°00' W 085°54'218.0 210 / 14998.6 19.2 4.4
2017-Sep-14 20:52N 45°58' W 085°52'0 0.1
2017-Sep-14 20:19N 45°58' W 085°52'2 6.9
2017-Sep-14 20:00N 46°00' W 085°54'281.9 220 / 15998.1 19.8 3.3
2017-Sep-14 19:58N 45°58' W 085°52'0 0.0
2017-Sep-14 19:28N 45°58' W 085°52'2 4.8
2017-Sep-14 19:00N 46°00' W 085°54'2 6.0 230 / 15998.0 19.9 3.9
2017-Sep-14 18:37N 45°58' W 085°52'0 0.0
2017-Sep-14 18:28N 45°58' W 085°52'2 4.8
2017-Sep-14 18:00N 46°00' W 085°54'229.2 230 / 16997.6 19.4 3.3
2017-Sep-14 17:55N 45°58' W 085°52'0 0.0
2017-Sep-14 17:25N 45°58' W 085°52'2 5.4
2017-Sep-14 17:00N 46°00' W 085°54'284.9 230 / 17997.8 19.9 5.0
2017-Sep-14 16:58N 45°58' W 085°52'0 0.0
2017-Sep-14 16:25N 45°58' W 085°52'2 5.4
2017-Sep-14 16:00N 46°00' W 085°54'229.6 220 / 14997.6 19.9 5.0
2017-Sep-14 15:55N 45°58' W 085°52'0 0.1
2017-Sep-14 15:28N 45°58' W 085°52'2 4.8
2017-Sep-14 15:00N 46°00' W 085°54'281.2 220 / 10997.4 19.3 6.7
2017-Sep-14 14:58N 45°58' W 085°52'0 0.0
2017-Sep-14 14:28N 45°58' W 085°52'2 4.8
2017-Sep-14 14:00N 46°00' W 085°54'282.2 210 / 11996.1 18.5 7.8
2017-Sep-14 13:58N 45°58' W 085°52'0 0.0
2017-Sep-14 13:28N 45°58' W 085°52'2 4.8
2017-Sep-14 13:00N 46°00' W 085°54'278.7 270 / 6996.3 17.2 6.7
2017-Sep-14 12:58N 45°58' W 085°52'0 0.2
2017-Sep-14 12:31N 45°58' W 085°52'1 1.8
2017-Sep-14 12:00N 45°57' W 085°52'3615.7
2017-Sep-14 12:00N 45°54' W 085°54'3 6.2 170 / 5995.8 17.4 7.2
2017-Sep-14 11:30N 45°57' W 085°52'0 0.1
2017-Sep-14 11:00N 45°57' W 085°52'3222.2
2017-Sep-14 11:00N 45°54' W 085°54'3 6.1 130 / 4995.3 17.1 5.6
2017-Sep-14 10:30N 45°57' W 085°52'0 0.0
2017-Sep-14 10:00N 45°57' W 085°52'3197.6
2017-Sep-14 10:00N 45°54' W 085°54'3 6.1 120 / 4995.0 16.6 4.4
2017-Sep-14 09:30N 45°57' W 085°52'0 0.0
2017-Sep-14 09:00N 45°57' W 085°52'3201.8
2017-Sep-14 09:00N 45°54' W 085°54'3 6.0 230 / 3994.7 17.4 5.0
2017-Sep-14 08:30N 45°57' W 085°52'3 5.9
2017-Sep-14 08:00N 45°54' W 085°54'3289.2 240 / 7994.9 17.9 5.0
2017-Sep-14 07:59N 45°57' W 085°52'0 0.0
2017-Sep-14 07:29N 45°57' W 085°52'0 0.1
2017-Sep-14 07:00N 45°57' W 085°52'3241.7
2017-Sep-14 07:00N 45°54' W 085°54'1 2.2 240 / 11994.7 18.4 5.0
2017-Sep-14 06:30N 45°53' W 085°53'1223.2
2017-Sep-14 06:00N 45°42' W 086°00'5107.5 300 / 7994.7 18.8 2.2
2017-Sep-14 05:57N 45°46' W 085°57'713.0
2017-Sep-14 05:25N 45°40' W 086°01'513.1
2017-Sep-14 05:00N 45°35' W 086°04'5322.7
2017-Sep-14 05:00N 45°30' W 086°06'2 3.8 180 / 9994.5 18.7 6.1
2017-Sep-14 04:30N 45°29' W 086°08'9314.2
2017-Sep-13 22:00N 44°06' W 087°06'1312.8 250 / 8994.7 19.9-0.6
2017-Sep-13 21:00N 43°54' W 087°12'4711.8 160 / 6995.0 20.6-10.0
2017-Sep-13 17:00N 43°12' W 087°42'1312.8 010 / 11995.5 17.4 7.8
2017-Sep-13 16:00N 43°00' W 087°48'4 4.4 060 / 14995.6 17.2 6.1
2017-Sep-13 15:00N 43°00' W 087°54'0 0.0 360 / 7995.4 18.2 6.7
2017-Sep-13 14:00N 43°00' W 087°54'0 0.0 360 / 5995.3 16.8 5.6
2017-Sep-13 13:00N 43°00' W 087°54'0 0.0 360 / 2995.5 15.0 2.8
2017-Sep-13 12:00N 43°00' W 087°54'0 0.0 290 / 3995.3 14.4 0.6
2017-Sep-13 11:00N 43°00' W 087°54'0 0.0 260 / 2995.4 14.8-0.0
2017-Sep-13 10:00N 43°00' W 087°54'0 0.0 300 / 2995.5 14.9-0.6
2017-Sep-13 09:00N 43°00' W 087°54'0 0.0 280 / 2995.6 15.2-2.2
2017-Sep-13 08:00N 43°00' W 087°54'0 0.0 240 / 2996.1 15.1-1.7
2017-Sep-13 07:00N 43°00' W 087°54'0 0.0 360 / 1996.3 16.1-0.6
2017-Sep-13 06:00N 43°00' W 087°54'0 0.0 010 / 3996.5 17.9-0.0
2017-Sep-13 05:00N 43°00' W 087°54'0 0.0 010 / 2996.9 18.3-5.0
2017-Sep-13 04:00N 43°00' W 087°54'0 0.0 360 / 2997.2 18.9-11.1
2017-Sep-13 03:00N 43°00' W 087°54'0 0.0 360 / 2997.3 18.7-3.3
2017-Sep-13 02:00N 43°00' W 087°54'0 0.0 070 / 2997.6 18.8-3.3
2017-Sep-13 01:00N 43°00' W 087°54'0 0.0 010 / 3998.4 19.1-4.4
2017-Sep-13 00:00N 43°00' W 087°54'0 0.0 040 / 3
2017-Sep-12 23:00N 43°00' W 087°54'0 0.0 040 / 3999.3 20.9-20.0
2017-Sep-12 22:00N 43°00' W 087°54'0 0.0 070 / 4999.8 20.4-20.6
2017-Sep-12 21:00N 43°00' W 087°54'0 0.0 100 / 71000.6 20.9-20.0
2017-Sep-12 20:00N 43°00' W 087°54'0 0.0 100 / 91000.8 19.5-15.6
2017-Sep-12 19:00N 43°00' W 087°54'0 0.0 120 / 111001.7 19.6-21.1
2017-Sep-12 18:00N 43°00' W 087°54'0 0.0 110 / 101002.5 19.3-11.7
2017-Sep-12 17:00N 43°00' W 087°54'0 0.0 100 / 81002.7 19.1-14.4
2017-Sep-12 03:00N 43°00' W 087°54'0 0.0 200 / 31005.6 16.1-10.6
2017-Sep-12 02:00N 43°00' W 087°54'0 0.0 170 / 41006.0 16.9-13.9
2017-Sep-12 01:00N 43°00' W 087°54'0 0.0 130 / 91006.2 17.9-22.2
2017-Sep-12 00:00N 43°00' W 087°54'0 0.0 110 / 111006.8 18.5-21.7
2017-Sep-11 23:00N 43°00' W 087°54'0 0.0 120 / 131007.0 18.7-21.7
2017-Sep-11 22:00N 43°00' W 087°54'0 0.0 120 / 141007.3 18.8-21.7
2017-Sep-11 21:00N 43°00' W 087°54'0 0.0 120 / 161007.9 18.6-21.7
2017-Sep-11 20:00N 43°00' W 087°54'0 0.0 120 / 151009.0 18.9-21.7
2017-Sep-11 19:00N 43°00' W 087°54'0 0.0 100 / 91009.7 19.0-21.7
2017-Sep-11 18:00N 43°00' W 087°54'0 0.0 100 / 101010.5 19.1-21.7
2017-Sep-11 17:00N 43°00' W 087°54'0 0.0 100 / 71011.1 21.0-20.0
2017-Sep-11 16:00N 43°00' W 087°54'0 0.0 220 / 71011.9 19.6-21.1
2017-Sep-11 15:00N 43°00' W 087°54'0 0.0 220 / 61011.4 17.6-6.1
2017-Sep-11 14:00N 43°00' W 087°54'0 0.0 240 / 41011.1 14.5-2.8
2017-Sep-11 13:00N 43°00' W 087°54'0 0.0 220 / 41011.3 11.6-2.8
2017-Sep-11 12:00N 43°00' W 087°54'0 0.0 240 / 31010.7 11.0-4.4
2017-Sep-11 11:00N 43°00' W 087°54'0 0.0 240 / 41010.9 11.5-4.4
2017-Sep-11 10:00N 43°00' W 087°54'0 0.0 250 / 41010.6 11.7-4.4
2017-Sep-11 09:00N 43°00' W 087°54'0 0.0 260 / 31010.6 12.5-5.0
2017-Sep-11 08:00N 43°00' W 087°54'0 0.0 250 / 31011.8 12.7-5.6
2017-Sep-11 07:00N 43°00' W 087°54'0 0.0 240 / 31011.9 12.7-5.6
2017-Sep-11 06:00N 43°00' W 087°54'0 0.0 220 / 31012.1 13.3-6.7
2017-Sep-11 05:00N 43°00' W 087°54'0 0.0 230 / 21012.7 14.4-10.6
2017-Sep-11 04:00N 43°00' W 087°54'0 0.0 140 / 41012.7 15.8-13.3
2017-Sep-11 03:00N 43°00' W 087°54'0 0.0 130 / 51012.9 16.0-21.7
2017-Sep-11 02:00N 43°00' W 087°54'0 0.0 130 / 51012.9 16.1-23.9
2017-Sep-11 01:00N 43°00' W 087°54'0 0.0 120 / 91013.6 16.4-23.3
2017-Sep-11 00:00N 43°00' W 087°54'0 0.0 110 / 101013.9 16.9-23.3
2017-Sep-10 23:00N 43°00' W 087°54'0 0.0 110 / 111014.1 17.1-22.8
2017-Sep-10 22:00N 43°00' W 087°54'0 0.0 110 / 121014.2 17.0-22.8
2017-Sep-10 21:00N 43°00' W 087°54'0 0.0 120 / 151014.9 17.4-22.8
2017-Sep-10 20:00N 43°00' W 087°54'   120 / 151015.6 17.5-22.8
Track history (hours):
 
Tides and Currents Weather Stations Pressure Air Temp Water Temp Dewpoint Dewpoint Depression Visibility Wind Speed Wind Dir Waves Ship Positions

Wilfred Sykes

Owner: CENTRAL MARINE LOGISTICS, INC, GRIFFITH, IN. More information available from US FCC via Universal Licensing System and Coast Guard Vessel Documentation Center.

Last reported at 2017-Sep-20 20:00 UTC. Time now 2017-Sep-22 19:02 UTC.
Position N 44°48' W 087°24'.

Length 219 m; draft 8.3 m.

Type: Cargo ship. MMSI: 367909800.

Wind from 150 at 27 knots

Barometer 1014.1 mb
Air temperature 21.9 ° C
Dewpoint 0.6 ° C

Date/timePositionNaut miles runAvg speedWind from/ knotsBaromVisibWave heightAir tempDewpointWater temp
2017-Sep-20 20:00N 44°48' W 087°24'0 0.0 150 / 271014.1 21.9 0.6
2017-Sep-20 19:00N 44°48' W 087°24'0 0.0 150 / 231015.1 20.1 6.1
2017-Sep-20 18:00N 44°48' W 087°24'0 0.0 140 / 201016.2 19.4 6.7
2017-Sep-20 17:00N 44°48' W 087°24'0 0.0 150 / 18999.5 19.3 7.8
2017-Sep-20 16:00N 44°48' W 087°24'0 0.0 150 / 16999.2 18.9 8.3
2017-Sep-20 15:00N 44°48' W 087°24'0 0.0 140 / 15999.1 18.4 7.8
2017-Sep-20 14:00N 44°48' W 087°24'0 0.0 140 / 14999.0 18.2 7.8
2017-Sep-20 13:00N 44°48' W 087°24'0 0.0 140 / 13998.6 17.9 7.2
2017-Sep-20 12:00N 44°48' W 087°24'0 0.0 150 / 12998.8 18.1 7.2
2017-Sep-20 11:00N 44°48' W 087°24'0 0.0 150 / 9998.8 18.1 6.7
2017-Sep-20 10:00N 44°48' W 087°24'0 0.0 140 / 8999.5 17.6 6.7
2017-Sep-20 09:00N 44°48' W 087°24'0 0.0 130 / 6999.6 17.4 5.6
2017-Sep-20 08:00N 44°48' W 087°24'0 0.0 130 / 6999.1 17.1 5.0
2017-Sep-20 07:00N 44°48' W 087°24'0 0.0 130 / 6998.8 16.7 4.4
2017-Sep-20 06:00N 44°48' W 087°24'0 0.0 130 / 4998.8 16.4 3.3
2017-Sep-20 05:00N 44°48' W 087°24'0 0.0 110 / 4999.1 16.7 2.8
2017-Sep-20 04:00N 44°48' W 087°24'0 0.0 120 / 4999.1 16.7 2.2
2017-Sep-20 03:00N 44°48' W 087°24'0 0.0 100 / 6999.6 16.9 2.2
2017-Sep-20 02:00N 44°48' W 087°24'0 0.0 100 / 4999.6 16.7-1.1
2017-Sep-20 01:00N 44°48' W 087°24'0 0.0 080 / 51000.2 17.9-3.9
2017-Sep-20 00:00N 44°48' W 087°24'0 0.0 060 / 71000.4 19.6-21.1
2017-Sep-19 23:00N 44°48' W 087°24'0 0.0 090 / 81000.6 21.3-20.0
2017-Sep-19 22:00N 44°48' W 087°24'0 0.0 150 / 71001.1 21.3-20.0
2017-Sep-19 21:00N 44°48' W 087°24'0 0.0 120 / 81001.8 20.4-20.6
2017-Sep-19 20:00N 44°48' W 087°24'0 0.0 110 / 91002.5 20.2-20.6
2017-Sep-19 19:00N 44°48' W 087°24'0 0.0 100 / 91002.7 19.9-15.6
2017-Sep-19 18:00N 44°48' W 087°24'0 0.0 110 / 111003.0 19.3-11.7
2017-Sep-19 17:00N 44°48' W 087°24'0 0.0 130 / 101003.1 18.8-3.9
2017-Sep-19 16:00N 44°48' W 087°24'0 0.0 130 / 101003.0 18.5-1.1
2017-Sep-19 15:00N 44°48' W 087°24'0 0.0 100 / 111002.6 17.6 2.2
2017-Sep-19 14:00N 44°48' W 087°24'4 4.3 100 / 71002.4 17.4 2.2
2017-Sep-19 13:00N 44°48' W 087°18'6 6.0 080 / 151002.3 17.2 3.3
2017-Sep-19 12:00N 44°42' W 087°18'4 4.3 100 / 181001.5 17.7 2.2
2017-Sep-19 11:00N 44°42' W 087°12'0 0.0 080 / 161001.7 17.9 1.7
2017-Sep-19 10:00N 44°42' W 087°12'6 6.0 090 / 121001.7 18.1-0.0
2017-Sep-19 09:00N 44°36' W 087°12'7 7.4 120 / 91002.0 18.0-1.7
2017-Sep-19 08:00N 44°30' W 087°06'6 6.0 110 / 101002.0 18.0-1.7
2017-Sep-19 07:00N 44°24' W 087°06'6 6.0 100 / 161001.7 18.2-2.8
2017-Sep-19 06:00N 44°18' W 087°06'44 4.9 100 / 171001.5 18.1-1.7
2017-Sep-18 21:00N 43°36' W 086°48'0 0.0 360 / 131004.2 19.2-11.1
2017-Sep-18 20:00N 43°36' W 086°48'6 6.0 350 / 131004.5 19.2-12.2
2017-Sep-18 19:00N 43°30' W 086°48'1312.8 1004.4 19.2-21.7
2017-Sep-18 18:00N 43°18' W 086°42'7 7.4 020 / 61006.1 19.0-3.9
2017-Sep-18 17:00N 43°12' W 086°36'1110.6 070 / 61006.0 17.8 1.1
2017-Sep-18 16:00N 43°06' W 086°24'9 8.8 060 / 121005.2 16.6 6.7
2017-Sep-18 15:00N 43°06' W 086°12'0 0.0 070 / 91005.4 14.6 5.6
2017-Sep-18 14:00N 43°06' W 086°12'0 0.0 050 / 101005.4 13.5 2.8
2017-Sep-18 13:00N 43°06' W 086°12'0 0.0 050 / 101005.0 12.7 0.6
2017-Sep-18 12:00N 43°06' W 086°12'0 0.0 020 / 71004.5 13.8 0.6
2017-Sep-18 11:00N 43°06' W 086°12'0 0.0 320 / 61004.4 15.3-0.6
2017-Sep-18 10:00N 43°06' W 086°12'7 7.4 340 / 161004.4 16.8-3.3
2017-Sep-18 09:00N 43°00' W 086°18'1514.9 340 / 161003.8 18.6-3.9
2017-Sep-18 08:00N 42°48' W 086°30'1312.8 340 / 181004.4 18.8-7.8
2017-Sep-18 07:00N 42°36' W 086°36'1312.8 330 / 221004.4 19.2-8.3
2017-Sep-18 06:00N 42°24' W 086°42'1312.8 340 / 221004.7 19.5-3.9
2017-Sep-18 05:00N 42°12' W 086°48'1312.8 340 / 231005.2 19.6-2.2
2017-Sep-18 04:00N 42°00' W 086°54'1312.8 340 / 241005.0 20.5-2.8
2017-Sep-18 03:00N 41°48' W 087°00'7 7.5 360 / 131004.4 21.2 7.2
2017-Sep-18 02:00N 41°42' W 087°06'6 6.0 310 / 101003.7 21.1 7.8
2017-Sep-18 01:00N 41°36' W 087°06'0 0.0 300 / 91003.0 22.2 6.7
2017-Sep-18 00:00N 41°36' W 087°06'0 0.0 160 / 91002.3 23.3 4.4
2017-Sep-17 23:00N 41°36' W 087°06'0 0.0 140 / 101002.8 23.7 4.4
2017-Sep-17 22:00N 41°36' W 087°06'0 0.0 020 / 111002.5 23.9 5.6
2017-Sep-17 21:00N 41°36' W 087°06'0 0.0 240 / 171002.9 23.9-0.0
2017-Sep-17 20:00N 41°36' W 087°06'0 0.0 020 / 91002.8 25.5-7.2
2017-Sep-17 19:00N 41°36' W 087°06'0 0.0 010 / 61002.8 27.1-15.6
2017-Sep-17 18:00N 41°36' W 087°06'0 0.0 290 / 81003.3 23.5-0.6
2017-Sep-17 17:00N 41°36' W 087°06'0 0.0 290 / 91003.2 23.3-1.1
2017-Sep-17 16:00N 41°36' W 087°06'0 0.0 190 / 111003.2 24.4-7.8
2017-Sep-17 15:00N 41°36' W 087°06'0 0.0 180 / 111003.8 23.2-2.2
2017-Sep-17 14:00N 41°36' W 087°06'0 0.0 170 / 101003.2 22.0 0.6
2017-Sep-17 13:00N 41°36' W 087°06'0 0.0 170 / 101003.3 20.3 3.9
2017-Sep-17 12:00N 41°36' W 087°06'0 0.0 170 / 91002.2 20.7 3.3
2017-Sep-17 11:00N 41°36' W 087°06'0 0.0 170 / 111002.4 20.9 3.3
2017-Sep-17 10:00N 41°36' W 087°06'0 0.0 170 / 121002.0 22.0-0.6
2017-Sep-17 09:00N 41°36' W 087°06'0 0.0 150 / 121001.7 22.1-1.1
2017-Sep-17 08:00N 41°36' W 087°06'0 0.0 160 / 111002.3 22.6-1.7
2017-Sep-17 07:00N 41°36' W 087°06'0 0.0 160 / 101002.6 23.7-12.8
2017-Sep-17 06:00N 41°36' W 087°06'0 0.0 150 / 111002.8 24.2-17.8
2017-Sep-17 05:00N 41°36' W 087°06'0 0.0 150 / 91003.2 25.1-17.2
2017-Sep-17 04:00N 41°36' W 087°06'0 0.0 140 / 91003.2 25.0-17.2
2017-Sep-17 03:00N 41°36' W 087°06'0 0.0 150 / 101003.3 25.6-16.7
2017-Sep-17 02:00N 41°36' W 087°06'0 0.0 160 / 81003.4 27.5-15.6
2017-Sep-17 01:00N 41°36' W 087°06'0 0.0 180 / 91003.1 28.1-15.0
2017-Sep-17 00:00N 41°36' W 087°06'0 0.0 190 / 101003.5 28.9-14.4
2017-Sep-16 23:00N 41°36' W 087°06'0 0.0 200 / 121004.0 29.3-14.4
2017-Sep-16 22:00N 41°36' W 087°06'0 0.0 200 / 131004.5 29.7-13.9
2017-Sep-16 21:00N 41°36' W 087°06'0 0.0 190 / 121004.9 29.8-13.9
2017-Sep-16 20:00N 41°36' W 087°06'0 0.0 180 / 131005.0 28.7-14.4
2017-Sep-16 19:00N 41°36' W 087°06'0 0.0 200 / 101005.3 28.2-15.0
2017-Sep-16 18:00N 41°36' W 087°06'6 6.0 160 / 101005.9 27.7-15.6
2017-Sep-16 17:00N 41°42' W 087°06'0 0.0 160 / 71006.4 24.8-13.3
2017-Sep-16 16:00N 41°42' W 087°06'0 0.0 190 / 101006.5 24.8-6.7
2017-Sep-16 15:00N 41°42' W 087°06'0 0.0 180 / 111006.2 23.1-1.1
2017-Sep-16 14:00N 41°42' W 087°06'0 0.0 170 / 121005.6 20.7 2.8
2017-Sep-16 13:00N 41°42' W 087°06'0 0.0 170 / 141004.8 18.9 3.3
2017-Sep-16 12:00N 41°42' W 087°06'0 0.0 160 / 161004.4 18.8 2.8
2017-Sep-16 11:00N 41°42' W 087°06'0 0.0 160 / 181004.0 19.1 2.2
2017-Sep-16 10:00N 41°42' W 087°06'0 0.0 160 / 171003.8 19.7 0.6
2017-Sep-16 09:00N 41°42' W 087°06'0 0.0 160 / 171003.5 20.0-1.1
2017-Sep-16 08:00N 41°42' W 087°06'0 0.0 160 / 171003.8 20.5-2.8
2017-Sep-16 07:00N 41°42' W 087°06'0 0.0 160 / 181003.5 21.2-8.3
2017-Sep-16 06:00N 41°42' W 087°06'0 0.0 150 / 191003.4 21.3-9.4
2017-Sep-16 05:00N 41°42' W 087°06'0 0.0 150 / 191002.8 22.2-19.4
2017-Sep-16 04:00N 41°42' W 087°06'0 0.0 150 / 181002.8 22.7-11.7
2017-Sep-16 03:00N 41°42' W 087°06'1110.8 130 / 161003.0 22.4-4.4
2017-Sep-16 02:00N 41°48' W 087°18'9 8.9 140 / 161002.5 23.1-0.6
2017-Sep-16 01:00N 41°48' W 087°30'7 7.5 150 / 111002.7 28.6-15.0
2017-Sep-16 00:00N 41°42' W 087°24'0 0.0 180 / 131002.4 29.0-14.4
2017-Sep-15 23:00N 41°42' W 087°24'0 0.0 180 / 131002.6 29.5-13.9
2017-Sep-15 22:00N 41°42' W 087°24'4 4.5 170 / 131002.6 30.2-13.3
2017-Sep-15 21:00N 41°42' W 087°30'2412.2 100 / 161002.4 23.0 1.1
2017-Sep-15 19:00N 42°06' W 087°24'8612.2 130 / 181002.9 21.0 7.2
2017-Sep-15 12:00N 43°24' W 086°36'1212.0 130 / 151002.0 19.1 9.4
2017-Sep-15 11:00N 43°36' W 086°36'1212.0 150 / 161001.4 18.8 8.9
2017-Sep-15 10:00N 43°48' W 086°36'1212.0 170 / 151001.1 19.0 7.8
2017-Sep-15 09:00N 44°00' W 086°36'1312.8 160 / 191000.4 18.9 6.7
2017-Sep-15 08:00N 44°12' W 086°30'1312.7 160 / 18999.7 18.6 5.0
2017-Sep-15 07:00N 44°24' W 086°24'1212.0 160 / 18999.7 18.1 3.3
2017-Sep-15 06:00N 44°36' W 086°24'1312.7 160 / 17999.3 18.4 4.4
2017-Sep-15 05:00N 44°48' W 086°18'1212.0 180 / 17999.3 18.3 6.1
2017-Sep-15 04:00N 45°00' W 086°18'1312.7 180 / 19999.0 18.5 7.2
2017-Sep-15 03:00N 45°12' W 086°12'1212.0 180 / 18998.6 18.6 6.7
2017-Sep-15 02:00N 45°24' W 086°12'2512.7 200 / 19998.3 18.2 7.2
2017-Sep-15 00:00N 45°48' W 086°00'7131.0 180 / 17998.5 18.3 6.7
2017-Sep-14 23:56N 45°42' W 086°05'812.0
2017-Sep-14 23:16N 45°48' W 085°59'624.0
2017-Sep-14 23:00N 45°54' W 085°54'3409.7 220 / 16998.7 18.4 5.6
2017-Sep-14 22:59N 45°51' W 085°56'5 9.6
2017-Sep-14 22:27N 45°56' W 085°53'4 9.5
2017-Sep-14 22:00N 46°00' W 085°54'282.3 210 / 16998.6 18.6 4.4
2017-Sep-14 21:58N 45°58' W 085°52'0 0.1
2017-Sep-14 21:10N 45°58' W 085°52'213.2
2017-Sep-14 21:00N 46°00' W 085°54'218.0 210 / 14998.6 19.2 4.4
2017-Sep-14 20:52N 45°58' W 085°52'0 0.1
2017-Sep-14 20:19N 45°58' W 085°52'2 6.9
2017-Sep-14 20:00N 46°00' W 085°54'281.9 220 / 15998.1 19.8 3.3
2017-Sep-14 19:58N 45°58' W 085°52'0 0.0
2017-Sep-14 19:28N 45°58' W 085°52'2 4.8
2017-Sep-14 19:00N 46°00' W 085°54'2 6.0 230 / 15998.0 19.9 3.9
2017-Sep-14 18:37N 45°58' W 085°52'0 0.0
2017-Sep-14 18:28N 45°58' W 085°52'2 4.8
2017-Sep-14 18:00N 46°00' W 085°54'229.2 230 / 16997.6 19.4 3.3
2017-Sep-14 17:55N 45°58' W 085°52'0 0.0
2017-Sep-14 17:25N 45°58' W 085°52'2 5.4
2017-Sep-14 17:00N 46°00' W 085°54'284.9 230 / 17997.8 19.9 5.0
2017-Sep-14 16:58N 45°58' W 085°52'0 0.0
2017-Sep-14 16:25N 45°58' W 085°52'2 5.4
2017-Sep-14 16:00N 46°00' W 085°54'229.6 220 / 14997.6 19.9 5.0
2017-Sep-14 15:55N 45°58' W 085°52'0 0.1
2017-Sep-14 15:28N 45°58' W 085°52'2 4.8
2017-Sep-14 15:00N 46°00' W 085°54'281.2 220 / 10997.4 19.3 6.7
2017-Sep-14 14:58N 45°58' W 085°52'0 0.0
2017-Sep-14 14:28N 45°58' W 085°52'2 4.8
2017-Sep-14 14:00N 46°00' W 085°54'282.2 210 / 11996.1 18.5 7.8
2017-Sep-14 13:58N 45°58' W 085°52'0 0.0
2017-Sep-14 13:28N 45°58' W 085°52'2 4.8
2017-Sep-14 13:00N 46°00' W 085°54'278.7 270 / 6996.3 17.2 6.7
2017-Sep-14 12:58N 45°58' W 085°52'0 0.2
2017-Sep-14 12:31N 45°58' W 085°52'1 1.8
2017-Sep-14 12:00N 45°57' W 085°52'3615.7
2017-Sep-14 12:00N 45°54' W 085°54'3 6.2 170 / 5995.8 17.4 7.2
2017-Sep-14 11:30N 45°57' W 085°52'0 0.1
2017-Sep-14 11:00N 45°57' W 085°52'3222.2
2017-Sep-14 11:00N 45°54' W 085°54'3 6.1 130 / 4995.3 17.1 5.6
2017-Sep-14 10:30N 45°57' W 085°52'0 0.0
2017-Sep-14 10:00N 45°57' W 085°52'3197.6
2017-Sep-14 10:00N 45°54' W 085°54'3 6.1 120 / 4995.0 16.6 4.4
2017-Sep-14 09:30N 45°57' W 085°52'0 0.0
2017-Sep-14 09:00N 45°57' W 085°52'3201.8
2017-Sep-14 09:00N 45°54' W 085°54'3 6.0 230 / 3994.7 17.4 5.0
2017-Sep-14 08:30N 45°57' W 085°52'3 5.9
2017-Sep-14 08:00N 45°54' W 085°54'3289.2 240 / 7994.9 17.9 5.0
2017-Sep-14 07:59N 45°57' W 085°52'0 0.0
2017-Sep-14 07:29N 45°57' W 085°52'0 0.1
2017-Sep-14 07:00N 45°57' W 085°52'3241.7
2017-Sep-14 07:00N 45°54' W 085°54'1 2.2 240 / 11994.7 18.4 5.0
2017-Sep-14 06:30N 45°53' W 085°53'1223.2
2017-Sep-14 06:00N 45°42' W 086°00'5107.5 300 / 7994.7 18.8 2.2
2017-Sep-14 05:57N 45°46' W 085°57'713.0
2017-Sep-14 05:25N 45°40' W 086°01'513.1
2017-Sep-14 05:00N 45°35' W 086°04'5322.7
2017-Sep-14 05:00N 45°30' W 086°06'2 3.8 180 / 9994.5 18.7 6.1
2017-Sep-14 04:30N 45°29' W 086°08'9314.2
2017-Sep-13 22:00N 44°06' W 087°06'1312.8 250 / 8994.7 19.9-0.6
2017-Sep-13 21:00N 43°54' W 087°12'4711.8 160 / 6995.0 20.6-10.0
2017-Sep-13 17:00N 43°12' W 087°42'1312.8 010 / 11995.5 17.4 7.8
2017-Sep-13 16:00N 43°00' W 087°48'4 4.4 060 / 14995.6 17.2 6.1
2017-Sep-13 15:00N 43°00' W 087°54'0 0.0 360 / 7995.4 18.2 6.7
2017-Sep-13 14:00N 43°00' W 087°54'0 0.0 360 / 5995.3 16.8 5.6
2017-Sep-13 13:00N 43°00' W 087°54'0 0.0 360 / 2995.5 15.0 2.8
2017-Sep-13 12:00N 43°00' W 087°54'0 0.0 290 / 3995.3 14.4 0.6
2017-Sep-13 11:00N 43°00' W 087°54'0 0.0 260 / 2995.4 14.8-0.0
2017-Sep-13 10:00N 43°00' W 087°54'0 0.0 300 / 2995.5 14.9-0.6
2017-Sep-13 09:00N 43°00' W 087°54'0 0.0 280 / 2995.6 15.2-2.2
2017-Sep-13 08:00N 43°00' W 087°54'0 0.0 240 / 2996.1 15.1-1.7
2017-Sep-13 07:00N 43°00' W 087°54'0 0.0 360 / 1996.3 16.1-0.6
2017-Sep-13 06:00N 43°00' W 087°54'0 0.0 010 / 3996.5 17.9-0.0
2017-Sep-13 05:00N 43°00' W 087°54'0 0.0 010 / 2996.9 18.3-5.0
2017-Sep-13 04:00N 43°00' W 087°54'0 0.0 360 / 2997.2 18.9-11.1
2017-Sep-13 03:00N 43°00' W 087°54'0 0.0 360 / 2997.3 18.7-3.3
2017-Sep-13 02:00N 43°00' W 087°54'0 0.0 070 / 2997.6 18.8-3.3
2017-Sep-13 01:00N 43°00' W 087°54'0 0.0 010 / 3998.4 19.1-4.4
2017-Sep-13 00:00N 43°00' W 087°54'0 0.0 040 / 3
2017-Sep-12 23:00N 43°00' W 087°54'0 0.0 040 / 3999.3 20.9-20.0
2017-Sep-12 22:00N 43°00' W 087°54'0 0.0 070 / 4999.8 20.4-20.6
2017-Sep-12 21:00N 43°00' W 087°54'0 0.0 100 / 71000.6 20.9-20.0
2017-Sep-12 20:00N 43°00' W 087°54'0 0.0 100 / 91000.8 19.5-15.6
2017-Sep-12 19:00N 43°00' W 087°54'0 0.0 120 / 111001.7 19.6-21.1
2017-Sep-12 18:00N 43°00' W 087°54'0 0.0 110 / 101002.5 19.3-11.7
2017-Sep-12 17:00N 43°00' W 087°54'0 0.0 100 / 81002.7 19.1-14.4
2017-Sep-12 03:00N 43°00' W 087°54'0 0.0 200 / 31005.6 16.1-10.6
2017-Sep-12 02:00N 43°00' W 087°54'0 0.0 170 / 41006.0 16.9-13.9
2017-Sep-12 01:00N 43°00' W 087°54'0 0.0 130 / 91006.2 17.9-22.2
2017-Sep-12 00:00N 43°00' W 087°54'0 0.0 110 / 111006.8 18.5-21.7
2017-Sep-11 23:00N 43°00' W 087°54'0 0.0 120 / 131007.0 18.7-21.7
2017-Sep-11 22:00N 43°00' W 087°54'0 0.0 120 / 141007.3 18.8-21.7
2017-Sep-11 21:00N 43°00' W 087°54'0 0.0 120 / 161007.9 18.6-21.7
2017-Sep-11 20:00N 43°00' W 087°54'0 0.0 120 / 151009.0 18.9-21.7
2017-Sep-11 19:00N 43°00' W 087°54'0 0.0 100 / 91009.7 19.0-21.7
2017-Sep-11 18:00N 43°00' W 087°54'0 0.0 100 / 101010.5 19.1-21.7
2017-Sep-11 17:00N 43°00' W 087°54'0 0.0 100 / 71011.1 21.0-20.0
2017-Sep-11 16:00N 43°00' W 087°54'0 0.0 220 / 71011.9 19.6-21.1
2017-Sep-11 15:00N 43°00' W 087°54'0 0.0 220 / 61011.4 17.6-6.1
2017-Sep-11 14:00N 43°00' W 087°54'0 0.0 240 / 41011.1 14.5-2.8
2017-Sep-11 13:00N 43°00' W 087°54'0 0.0 220 / 41011.3 11.6-2.8
2017-Sep-11 12:00N 43°00' W 087°54'0 0.0 240 / 31010.7 11.0-4.4
2017-Sep-11 11:00N 43°00' W 087°54'0 0.0 240 / 41010.9 11.5-4.4
2017-Sep-11 10:00N 43°00' W 087°54'0 0.0 250 / 41010.6 11.7-4.4
2017-Sep-11 09:00N 43°00' W 087°54'0 0.0 260 / 31010.6 12.5-5.0
2017-Sep-11 08:00N 43°00' W 087°54'0 0.0 250 / 31011.8 12.7-5.6
2017-Sep-11 07:00N 43°00' W 087°54'0 0.0 240 / 31011.9 12.7-5.6
2017-Sep-11 06:00N 43°00' W 087°54'0 0.0 220 / 31012.1 13.3-6.7
2017-Sep-11 05:00N 43°00' W 087°54'0 0.0 230 / 21012.7 14.4-10.6
2017-Sep-11 04:00N 43°00' W 087°54'0 0.0 140 / 41012.7 15.8-13.3
2017-Sep-11 03:00N 43°00' W 087°54'0 0.0 130 / 51012.9 16.0-21.7
2017-Sep-11 02:00N 43°00' W 087°54'0 0.0 130 / 51012.9 16.1-23.9
2017-Sep-11 01:00N 43°00' W 087°54'0 0.0 120 / 91013.6 16.4-23.3
2017-Sep-11 00:00N 43°00' W 087°54'0 0.0 110 / 101013.9 16.9-23.3
2017-Sep-10 23:00N 43°00' W 087°54'0 0.0 110 / 111014.1 17.1-22.8
2017-Sep-10 22:00N 43°00' W 087°54'0 0.0 110 / 121014.2 17.0-22.8
2017-Sep-10 21:00N 43°00' W 087°54'0 0.0 120 / 151014.9 17.4-22.8
2017-Sep-10 20:00N 43°00' W 087°54'   120 / 151015.6 17.5-22.8

Dump ship's entire track history